Jamaica, Virginia
Current Conditions -  °F | °C
As of 11:35 AM on Tuesday 21 Oct 2014 (Local Time) from KFYJ Reporting Station
Clear Clear  
Wind Chill: 69°   Ceiling: Unl
Heat Index: 69°   Visibility: 10mi
Dew Point: 50°   Wind: 5mph
Humidity: 51%   Direction: 240°WSW
Pressure: 29.88"   Gusts: NA
Location:  37.72°N, 76.7°W
Report Text: KFYJ 211535Z AUTO 24004KT 10SM CLR 21/10 A2988 RMK AO2 T02050101
Loading
Personal Weather Stations






























Interactive Weather Map
Tropical Storm Tracking
New forecast layout! Learn more

10-Day Weather Forecast

Advertisements
Track Severe Weather on mobile